Map

Track Data

SID SEASON NUMBER BASIN SUBBASIN NAME ISO_TIME NATURE LAT LON WMO_WIND WMO_PRES WMO_AGENCY TRACK_TYPE DIST2LAND LANDFALL IFLAG USA_AGENCY USA_ATCF_ID USA_LAT USA_LON USA_RECORD USA_STATUS USA_WIND USA_PRES USA_SSHS USA_R34_NE USA_R34_SE USA_R34_SW USA_R34_NW USA_R50_NE USA_R50_SE USA_R50_SW USA_R50_NW USA_R64_NE USA_R64_SE USA_R64_SW USA_R64_NW USA_POCI USA_ROCI USA_RMW USA_EYE TOKYO_LAT TOKYO_LON TOKYO_GRADE TOKYO_WIND TOKYO_PRES TOKYO_R50_DIR TOKYO_R50_LONG TOKYO_R50_SHORT TOKYO_R30_DIR TOKYO_R30_LONG TOKYO_R30_SHORT TOKYO_LAND CMA_LAT CMA_LON CMA_CAT CMA_WIND CMA_PRES HKO_LAT HKO_LON HKO_CAT HKO_WIND HKO_PRES NEWDELHI_LAT NEWDELHI_LON NEWDELHI_GRADE NEWDELHI_WIND NEWDELHI_PRES NEWDELHI_CI NEWDELHI_DP NEWDELHI_POCI REUNION_LAT REUNION_LON REUNION_TYPE REUNION_WIND REUNION_PRES REUNION_TNUM REUNION_CI REUNION_RMW REUNION_R34_NE REUNION_R34_SE REUNION_R34_SW REUNION_R34_NW REUNION_R50_NE REUNION_R50_SE REUNION_R50_SW REUNION_R50_NW REUNION_R64_NE REUNION_R64_SE REUNION_R64_SW REUNION_R64_NW BOM_LAT BOM_LON BOM_TYPE BOM_WIND BOM_PRES BOM_TNUM BOM_CI BOM_RMW BOM_R34_NE BOM_R34_SE BOM_R34_SW BOM_R34_NW BOM_R50_NE BOM_R50_SE BOM_R50_SW BOM_R50_NW BOM_R64_NE BOM_R64_SE BOM_R64_SW BOM_R64_NW BOM_ROCI BOM_POCI BOM_EYE BOM_POS_METHOD BOM_PRES_METHOD NADI_LAT NADI_LON NADI_CAT NADI_WIND NADI_PRES WELLINGTON_LAT WELLINGTON_LON WELLINGTON_WIND WELLINGTON_PRES DS824_LAT DS824_LON DS824_STAGE DS824_WIND DS824_PRES TD9636_LAT TD9636_LON TD9636_STAGE TD9636_WIND TD9636_PRES TD9635_LAT TD9635_LON TD9635_WIND TD9635_PRES TD9635_ROCI NEUMANN_LAT NEUMANN_LON NEUMANN_CLASS NEUMANN_WIND NEUMANN_PRES MLC_LAT MLC_LON MLC_CLASS MLC_WIND MLC_PRES USA_GUST BOM_GUST BOM_GUST_PER REUNION_GUST REUNION_GUST_PER USA_SEAHGT USA_SEARAD_NE USA_SEARAD_SE USA_SEARAD_SW USA_SEARAD_NW STORM_SPEED STORM_DIR
1927321N10140 1927 67 WP MM NOT_NAMED 1927-11-17 09:00:00 NR 10.0000 140.400 main 1308 1296 __________O___ -1 10.0000 140.400 7 7 270
1927321N10140 1927 67 WP MM NOT_NAMED 1927-11-17 12:00:00 NR 10.0003 140.058 main 1296 1281 __________P___ -1 10.0003 140.058 7 7 270
1927321N10140 1927 67 WP MM NOT_NAMED 1927-11-17 15:00:00 NR 10.0003 139.713 main 1281 1270 __________P___ -1 10.0003 139.713 7 7 270
1927321N10140 1927 67 WP MM NOT_NAMED 1927-11-17 18:00:00 NR 10.0002 139.361 main 1270 1256 __________P___ -1 10.0002 139.361 7 7 270
1927321N10140 1927 67 WP MM NOT_NAMED 1927-11-17 21:00:00 NR 10.0000 139.000 main 1256 1244 __________O___ -1 10.0000 139.000 7 7 270
1927321N10140 1927 67 WP MM NOT_NAMED 1927-11-18 00:00:00 NR 9.99983 138.627 main 1244 1235 __________P___ -1 9.99983 138.627 7 8 270
1927321N10140 1927 67 WP MM NOT_NAMED 1927-11-18 03:00:00 NR 9.99974 138.237 main 1233 1225 __________P___ -1 9.99974 138.237 7 8 270
1927321N10140 1927 67 WP MM NOT_NAMED 1927-11-18 06:00:00 NR 9.99978 137.830 main 1223 1215 __________P___ -1 9.99978 137.830 7 8 270
1927321N10140 1927 67 WP MM NOT_NAMED 1927-11-18 09:00:00 NR 10.0000 137.400 main 1215 1172 __________O___ -1 10.0000 137.400 7 9 270
1927321N10140 1927 67 WP MM NOT_NAMED 1927-11-18 12:00:00 NR 10.0001 136.930 main 1161 1118 __________P___ -1 10.0001 136.930 7 9 270
1927321N10140 1927 67 WP MM NOT_NAMED 1927-11-18 15:00:00 NR 10.0001 136.443 main 1107 1065 __________P___ -1 10.0001 136.443 7 10 270
1927321N10140 1927 67 WP MM NOT_NAMED 1927-11-18 18:00:00 NR 10.0001 135.958 main 1065 1011 __________P___ -1 10.0001 135.958 7 9 270
1927321N10140 1927 67 WP MM NOT_NAMED 1927-11-18 21:00:00 NR 10.0000 135.500 main 1011 969 __________O___ -1 10.0000 135.500 7 8 270
1927321N10140 1927 67 WP MM NOT_NAMED 1927-11-19 00:00:00 NR 10.0036 135.117 main 969 937 __________P___ -1 10.0036 135.117 7 7 271
1927321N10140 1927 67 WP MM NOT_NAMED 1927-11-19 03:00:00 NR 10.0068 134.758 main 937 895 __________P___ -1 10.0068 134.758 7 7 270
1927321N10140 1927 67 WP MM NOT_NAMED 1927-11-19 06:00:00 NR 10.0067 134.395 main 895 853 __________P___ -1 10.0067 134.395 7 7 269
1927321N10140 1927 67 WP MM NOT_NAMED 1927-11-19 09:00:00 NR 10.0000 134.000 main 853 808 __________O___ -1 10.0000 134.000 7 8 263
1927321N10140 1927 67 WP MM NOT_NAMED 1927-11-19 12:00:00 NR 9.90871 133.567 main 808 752 __________P___ -1 9.90871 133.567 7 9 259
1927321N10140 1927 67 WP MM NOT_NAMED 1927-11-19 15:00:00 NR 9.82192 133.096 main 752 700 __________P___ -1 9.82192 133.096 7 10 264
1927321N10140 1927 67 WP MM NOT_NAMED 1927-11-19 18:00:00 NR 9.79919 132.576 main 700 637 __________P___ -1 9.79919 132.576 7 11 274
1927321N10140 1927 67 WP MM NOT_NAMED 1927-11-19 21:00:00 NR 9.90000 132.000 main 637 581 __________O___ -1 9.90000 132.000 7 13 288
1927321N10140 1927 67 WP MM NOT_NAMED 1927-11-20 00:00:00 NR 10.1961 131.334 main 570 514 __________P___ -1 10.1961 131.334 7 15 298
1927321N10140 1927 67 WP MM NOT_NAMED 1927-11-20 03:00:00 NR 10.6157 130.616 main 507 447 __________P___ -1 10.6157 130.616 7 17 303
1927321N10140 1927 67 WP MM NOT_NAMED 1927-11-20 06:00:00 NR 11.1024 129.890 main 447 377 __________P___ -1 11.1024 129.890 7 17 305
1927321N10140 1927 67 WP MM NOT_NAMED 1927-11-20 09:00:00 NR 11.6000 129.200 main 377 325 __________O___ -1 11.6000 129.200 7 16 307
1927321N10140 1927 67 WP MM NOT_NAMED 1927-11-20 12:00:00 NR 12.0693 128.567 main 329 273 __________P___ -1 12.0693 128.567 7 15 308
1927321N10140 1927 67 WP MM NOT_NAMED 1927-11-20 15:00:00 NR 12.5321 127.981 main 273 230 __________P___ -1 12.5321 127.981 7 14 309
1927321N10140 1927 67 WP MM NOT_NAMED 1927-11-20 18:00:00 NR 12.9539 127.454 main 234 204 __________P___ -1 12.9539 127.454 7 12 309
1927321N10140 1927 67 WP MM NOT_NAMED 1927-11-20 21:00:00 NR 13.3000 127.000 main 204 187 __________O___ -1 13.3000 127.000 7 10 305
1927321N10140 1927 67 WP MM NOT_NAMED 1927-11-21 00:00:00 NR 13.5121 126.623 main 187 171 __________P___ -1 13.5121 126.623 7 8 298
1927321N10140 1927 67 WP MM NOT_NAMED 1927-11-21 03:00:00 NR 13.6517 126.316 main 179 166 __________P___ -1 13.6517 126.316 7 6 295
1927321N10140 1927 67 WP MM NOT_NAMED 1927-11-21 06:00:00 NR 13.7654 126.051 main 175 151 __________P___ -1 13.7654 126.051 7 6 296
1927321N10140 1927 67 WP MM NOT_NAMED 1927-11-21 09:00:00 NR 13.9000 125.800 main 151 120 __________O___ -1 13.9000 125.800 7 7 304
1927321N10140 1927 67 WP MM NOT_NAMED 1927-11-21 12:00:00 NR 14.1458 125.461 main 120 97 __________P___ -1 14.1458 125.461 7 8 309
1927321N10140 1927 67 WP MM NOT_NAMED 1927-11-21 15:00:00 NR 14.4152 125.138 main 94 93 __________P___ -1 14.4152 125.138 7 8 313
1927321N10140 1927 67 WP MM NOT_NAMED 1927-11-21 18:00:00 NR 14.6770 124.871 main 101 95 __________P___ -1 14.6770 124.871 7 6 319
1927321N10140 1927 67 WP MM NOT_NAMED 1927-11-21 21:00:00 NR 14.9000 124.700 main 109 104 __________O___ -1 14.9000 124.700 7 7 105
1927321N10140 1927 67 WP MM NOT_NAMED 1927-11-21 22:00:00 NR 14.5637 125.318 main 124 124 __________P___ -1 14.9546 124.673 7 21 112
1927321N10140 1927 67 WP MM NOT_NAMED 1927-11-22 00:00:00 NR 14.5115 125.696 main 155 155 __________P___ -1 15.0469 124.658 7 7 78
1927321N10140 1927 67 WP MM NOT_NAMED 1927-11-22 03:00:00 NR 14.6928 125.925 main 184 184 __________P___ -1 15.1522 124.715 7 5 36
1927321N10140 1927 67 WP MM NOT_NAMED 1927-11-22 06:00:00 NR 14.9479 126.022 main 205 205 __________P___ -1 15.2314 124.839 7 5 353
1927321N10140 1927 67 WP MM NOT_NAMED 1927-11-22 09:00:00 NR 15.2301 125.856 main 217 209 __________O___ -1 15.3000 125.000 7 7 326
1927321N10140 1927 67 WP MM NOT_NAMED 1927-11-22 10:00:00 NR 15.3074 125.769 main 217 209 __________P___ -1 15.3148 125.038 7 7 307
1927321N10140 1927 67 WP MM NOT_NAMED 1927-11-22 12:00:00 NR 15.4369 125.564 main 210 199 __________P___ -1 15.3374 125.122 7 7 298
1927321N10140 1927 67 WP MM NOT_NAMED 1927-11-22 15:00:00 NR 15.5853 125.229 main 203 198 __________P___ -1 15.3748 125.276 7 7 294
1927321N10140 1927 67 WP MM NOT_NAMED 1927-11-22 18:00:00 NR 15.7072 124.941 main 200 200 __________P___ -1 15.4498 125.466 7 5 301
1927321N10140 1927 67 WP MM NOT_NAMED 1927-11-22 21:00:00 NR 15.8362 124.795 main 208 208 __________O___ -1 15.6000 125.700 7 3 323
1927321N10140 1927 67 WP MM NOT_NAMED 1927-11-22 22:00:00 NR 15.8924 124.796 main 219 219 __________P___ -1 15.6848 125.792 7 4 36
1927321N10140 1927 67 WP MM NOT_NAMED 1927-11-23 00:00:00 NR 16.0089 124.922 main 232 232 __________P___ -1 15.8874 125.993 7 7 57
1927321N10140 1927 67 WP MM NOT_NAMED 1927-11-23 03:00:00 NR 16.1932 125.269 main 268 268 __________P___ -1 16.2479 126.326 7 9 63
1927321N10140 1927 67 WP MM NOT_NAMED 1927-11-23 06:00:00 NR 16.3951 125.726 main 307 307 __________P___ -1 16.6343 126.672 7 10 64
1927321N10140 1927 67 WP MM NOT_NAMED 1927-11-23 09:00:00 NR 16.6220 126.202 main 355 355 __________O___ -1 17.0000 127.000 7 10 63
1927321N10140 1927 67 WP MM NOT_NAMED 1927-11-23 10:00:00 NR 16.6965 126.346 main 370 370 __________P___ -1 17.0929 127.092 7 9 58
1927321N10140 1927 67 WP MM NOT_NAMED 1927-11-23 12:00:00 NR 16.8636 126.607 main 407 407 __________P___ -1 17.2663 127.268 7 9 51
1927321N10140 1927 67 WP MM NOT_NAMED 1927-11-23 15:00:00 NR 17.1569 126.943 main 453 453 __________P___ -1 17.5071 127.516 7 9 45
1927321N10140 1927 67 WP MM NOT_NAMED 1927-11-23 18:00:00 NR 17.5297 127.308 main 506 506 __________P___ -1 17.7444 127.756 7 10 43
1927321N10140 1927 67 WP MM NOT_NAMED 1927-11-23 21:00:00 NR 17.9108 127.669 main 560 560 __________O___ -1 18.0000 128.000 7 12 46
1927321N10140 1927 67 WP MM NOT_NAMED 1927-11-23 22:00:00 NR 18.0606 127.890 main 585 585 __________P___ -1 18.1007 128.087 7 14 55
1927321N10140 1927 67 WP MM NOT_NAMED 1927-11-24 00:00:00 NR 18.3115 128.264 main 631 631 __________P___ -1 18.3115 128.264 7 10 46
1927321N10140 1927 67 WP MM NOT_NAMED 1927-11-24 03:00:00 NR 18.6423 128.535 main 654 654 __________P___ -1 18.6423 128.535 7 8 38
1927321N10140 1927 67 WP MM NOT_NAMED 1927-11-24 06:00:00 NR 18.9771 128.814 main 687 687 __________P___ -1 18.9771 128.814 7 9 39
1927321N10140 1927 67 WP MM NOT_NAMED 1927-11-24 09:00:00 NR 19.3000 129.100 main 722 722 __________O___ -1 19.3000 129.100 7 9 42
1927321N10140 1927 67 WP MM NOT_NAMED 1927-11-24 12:00:00 NR 19.6058 129.421 main 758 758 __________P___ -1 19.6058 129.421 7 9 46
1927321N10140 1927 67 WP MM NOT_NAMED 1927-11-24 15:00:00 NR 19.8953 129.745 main 795 795 __________P___ -1 19.8953 129.745 7 8 47
1927321N10140 1927 67 WP MM NOT_NAMED 1927-11-24 18:00:00 NR 20.1621 130.046 main 832 832 __________P___ -1 20.1621 130.046 7 7 46
1927321N10140 1927 67 WP MM NOT_NAMED 1927-11-24 21:00:00 NR 20.4000 130.300 main 868 868 __________O___ -1 20.4000 130.300 7 6 42
1927321N10140 1927 67 WP MM NOT_NAMED 1927-11-25 00:00:00 NR 20.6116 130.480 main 893 893 __________P___ -1 20.6116 130.480 7 5 36
1927321N10140 1927 67 WP MM NOT_NAMED 1927-11-25 03:00:00 NR 20.7946 130.611 main 909 909 __________P___ -1 20.7946 130.611 7 4 32
1927321N10140 1927 67 WP MM NOT_NAMED 1927-11-25 06:00:00 NR 20.9554 130.711 main 925 925 __________P___ -1 20.9554 130.711 7 4 30
1927321N10140 1927 67 WP MM NOT_NAMED 1927-11-25 09:00:00 NR 21.1000 130.800 main 939 939 __________O___ -1 21.1000 130.800 7 3 32
1927321N10140 1927 67 WP MM NOT_NAMED 1927-11-25 12:00:00 NR 21.2352 130.899 main 952 952 __________P___ -1 21.2352 130.899 7 3 35
1927321N10140 1927 67 WP MM NOT_NAMED 1927-11-25 15:00:00 NR 21.3574 130.993 main 969 969 __________P___ -1 21.3574 130.993 7 3 36
1927321N10140 1927 67 WP MM NOT_NAMED 1927-11-25 18:00:00 NR 21.4758 131.090 main 982 982 __________P___ -1 21.4758 131.090 7 3 39
1927321N10140 1927 67 WP MM NOT_NAMED 1927-11-25 21:00:00 NR 21.6000 131.200 main 996 996 __________O___ -1 21.6000 131.200 7 4 43
1927321N10140 1927 67 WP MM NOT_NAMED 1927-11-26 00:00:00 NR 21.7348 131.348 main 1009 1009 __________P___ -1 21.7348 131.348 7 4 46
1927321N10140 1927 67 WP MM NOT_NAMED 1927-11-26 03:00:00 NR 21.8776 131.507 main 1019 1009 __________P___ -1 21.8776 131.507 7 4 45
1927321N10140 1927 67 WP MM NOT_NAMED 1927-11-26 06:00:00 NR 22.0316 131.663 main 1010 988 __________P___ -1 22.0316 131.663 7 4 40
1927321N10140 1927 67 WP MM NOT_NAMED 1927-11-26 09:00:00 NR 22.2000 131.800 main 988 967 __________O___ -1 22.2000 131.800 7 4 30
1927321N10140 1927 67 WP MM NOT_NAMED 1927-11-26 12:00:00 NR 22.3855 131.881 main 967 945 __________P___ -1 22.3855 131.881 7 4 19
1927321N10140 1927 67 WP MM NOT_NAMED 1927-11-26 15:00:00 NR 22.5848 131.943 main 945 924 __________P___ -1 22.5848 131.943 7 4 16
1927321N10140 1927 67 WP MM NOT_NAMED 1927-11-26 18:00:00 NR 22.7917 132.009 main 924 904 __________P___ -1 22.7917 132.009 7 4 19
1927321N10140 1927 67 WP MM NOT_NAMED 1927-11-26 21:00:00 NR 23.0000 132.100 main 904 883 __________O___ -1 23.0000 132.100 7 5 28
1927321N10140 1927 67 WP MM NOT_NAMED 1927-11-27 00:00:00 NR 23.1960 132.242 main 883 865 __________P___ -1 23.1960 132.242 7 5 36
1927321N10140 1927 67 WP MM NOT_NAMED 1927-11-27 03:00:00 NR 23.3925 132.413 main 865 847 __________P___ -1 23.3925 132.413 7 5 40
1927321N10140 1927 67 WP MM NOT_NAMED 1927-11-27 06:00:00 NR 23.5928 132.602 main 847 830 __________P___ -1 23.5928 132.602 7 5 41
1927321N10140 1927 67 WP MM NOT_NAMED 1927-11-27 09:00:00 NR 23.8000 132.800 main 830 811 __________O___ -1 23.8000 132.800 7 5 41
1927321N10140 1927 67 WP MM NOT_NAMED 1927-11-27 12:00:00 NR 24.0056 132.993 main 813 795 __________P___ -1 24.0056 132.993 7 6 41
1927321N10140 1927 67 WP MM NOT_NAMED 1927-11-27 15:00:00 NR 24.2200 133.193 main 798 779 __________P___ -1 24.2200 133.193 7 6 40
1927321N10140 1927 67 WP MM NOT_NAMED 1927-11-27 18:00:00 NR 24.4493 133.396 main 783 758 __________P___ -1 24.4493 133.396 7 6 38
1927321N10140 1927 67 WP MM NOT_NAMED 1927-11-27 21:00:00 NR 24.7000 133.600 main 758 741 __________O___ -1 24.7000 133.600 7 6 32
1927321N10140 1927 67 WP MM NOT_NAMED 1927-11-28 00:00:00 NR 24.9160 133.714 main 741 725 __________P___ -1 24.9160 133.714 7 5 26
1927321N10140 1927 67 WP MM NOT_NAMED 1927-11-28 03:00:00 NR 25.1625 133.841 main 715 693 __________P___ -1 25.1625 133.841 7 6 28
1927321N10140 1927 67 WP MM NOT_NAMED 1927-11-28 06:00:00 NR 25.4777 134.047 main 693 674 __________P___ -1 25.4777 134.047 7 9 34
1927321N10140 1927 67 WP MM NOT_NAMED 1927-11-28 09:00:00 NR 25.9000 134.400 main 674 643 __________O___ -1 25.9000 134.400 4 14 40
1927321N10140 1927 67 WP MM NOT_NAMED 1927-11-28 12:00:00 NR 26.5313 135.029 main 649 626 __________P___ -1 26.5313 135.029 4 19 43
1927321N10140 1927 67 WP MM NOT_NAMED 1927-11-28 15:00:00 NR 27.2548 135.807 main 625 617 __________P___ -1 27.2548 135.807 4 20 45
1927321N10140 1927 67 WP MM NOT_NAMED 1927-11-28 18:00:00 NR 27.9753 136.632 main 607 556 __________P___ -1 27.9753 136.632 4 20 46
1927321N10140 1927 67 WP MM NOT_NAMED 1927-11-28 21:00:00 NR 28.6000 137.400 main 556 522 __________O___ -1 28.6000 137.400 4 15 44
1927321N10140 1927 67 WP MM NOT_NAMED 1927-11-29 00:00:00 NR 29.0182 137.779 main 526 502 __________P___ -1 29.0182 137.779 4 10 40
1927321N10140 1927 67 WP MM NOT_NAMED 1927-11-29 03:00:00 NR 29.3341 138.106 main 506 494 __________P___ -1 29.3341 138.106 4 9 50
1927321N10140 1927 67 WP MM NOT_NAMED 1927-11-29 06:00:00 NR 29.5835 138.554 main 499 495 __________P___ -1 29.5835 138.554 4 11 66
1927321N10140 1927 67 WP MM NOT_NAMED 1927-11-29 09:00:00 NR 29.8000 139.300 main 520 520 __________O___ -1 29.8000 139.300 4 19 77
1927321N10140 1927 67 WP MM NOT_NAMED 1927-11-29 12:00:00 NR 29.9931 140.664 main 543 543 __________P___ -1 29.9931 140.664 4 26 82
1927321N10140 1927 67 WP MM NOT_NAMED 1927-11-29 15:00:00 NR 30.1488 142.325 main 580 573 __________P___ -1 30.1488 142.325 4 30 84
1927321N10140 1927 67 WP MM NOT_NAMED 1927-11-29 18:00:00 NR 30.3025 144.073 main 645 645 __________P___ -1 30.3025 144.073 4 29 83
1927321N10140 1927 67 WP MM NOT_NAMED 1927-11-29 21:00:00 NR 30.5000 145.700 main 720 720 __________O___ -1 30.5000 145.700 4 26 79
1927321N10140 1927 67 WP MM NOT_NAMED 1927-11-30 00:00:00 NR 30.7835 147.051 main 793 793 __________P___ -1 30.7835 147.051 4 22 73
1927321N10140 1927 67 WP MM NOT_NAMED 1927-11-30 03:00:00 NR 31.1452 148.162 main 848 841 __________P___ -1 31.1452 148.162 4 19 66
1927321N10140 1927 67 WP MM NOT_NAMED 1927-11-30 06:00:00 NR 31.5601 149.118 main 884 884 __________P___ -1 31.5601 149.118 4 18 61
1927321N10140 1927 67 WP MM NOT_NAMED 1927-11-30 09:00:00 NR 32.0000 150.000 main 934 __________O___ -1 32.0000 150.000 4 17 60

Digital Typhoon Data and Search

About IBTrACS Database

This database is a web-friendly format of International Best Track Archive for Climate Stewardship (IBTrACS), a global best track data archive curated by NOAA dating back to 1842.

Updated: 2021-12-06